createdAt,value
2019-01-13T00:00:47.512Z,97
2019-01-13T00:06:13.959Z,97
2019-01-13T00:11:41.578Z,97
2019-01-13T00:17:09.138Z,97
2019-01-13T00:22:35.666Z,97
2019-01-13T00:28:02.269Z,97
2019-01-13T00:33:28.990Z,97
2019-01-13T00:38:56.401Z,97
2019-01-13T00:44:22.987Z,97
2019-01-13T00:49:49.541Z,97
2019-01-13T00:55:16.207Z,97
2019-01-13T01:00:42.706Z,97
2019-01-13T01:06:10.385Z,97
2019-01-13T01:11:37.806Z,97
2019-01-13T01:17:05.382Z,97
2019-01-13T01:22:32.937Z,97
2019-01-13T01:27:59.496Z,97
2019-01-13T01:33:27.114Z,97
2019-01-13T01:38:54.630Z,97
2019-01-13T01:44:22.225Z,97
2019-01-13T01:49:49.759Z,97
2019-01-13T01:55:16.345Z,97
2019-01-13T02:00:43.864Z,97
2019-01-13T02:06:11.439Z,97
2019-01-13T02:11:38.992Z,97
2019-01-13T02:17:05.519Z,97
2019-01-13T02:22:33.141Z,97
2019-01-13T02:28:00.680Z,97
2019-01-13T02:33:28.251Z,97
2019-01-13T02:38:55.821Z,97
2019-01-13T02:44:22.374Z,97
2019-01-13T02:50:42.329Z,97
2019-01-13T02:55:16.533Z,97
2019-01-13T03:00:43.165Z,97
2019-01-13T03:06:10.663Z,97
2019-01-13T03:11:37.209Z,97
2019-01-13T03:17:03.772Z,97
2019-01-13T03:22:30.382Z,97
2019-01-13T03:27:56.953Z,97
2019-01-13T03:33:23.497Z,97
2019-01-13T03:38:50.045Z,97
2019-01-13T03:44:16.735Z,97
2019-01-13T03:49:43.218Z,97
2019-01-13T03:55:09.805Z,97
2019-01-13T04:00:37.554Z,97
2019-01-13T04:06:03.998Z,97
2019-01-13T04:11:30.558Z,97
2019-01-13T04:16:58.148Z,97
2019-01-13T04:22:24.720Z,97
2019-01-13T04:27:52.343Z,97
2019-01-13T04:33:19.901Z,97
2019-01-13T04:38:52.523Z,97
2019-01-13T04:44:15.113Z,97
2019-01-13T04:49:42.703Z,97
2019-01-13T04:55:10.350Z,97
2019-01-13T05:00:42.871Z,97
2019-01-13T05:06:05.406Z,97
2019-01-13T05:11:32.965Z,97
2019-01-13T05:17:00.606Z,97
2019-01-13T05:22:27.204Z,97
2019-01-13T05:27:53.731Z,97
2019-01-13T05:33:21.332Z,97
2019-01-13T05:38:48.892Z,97
2019-01-13T05:44:16.813Z,97
2019-01-13T05:49:43.027Z,97
2019-01-13T05:55:09.606Z,97
2019-01-13T06:00:37.209Z,97
2019-01-13T06:06:03.736Z,97
2019-01-13T06:11:31.459Z,97
2019-01-13T06:16:58.962Z,97
2019-01-13T06:22:29.050Z,97
2019-01-13T06:27:52.190Z,97
2019-01-13T06:33:18.626Z,97
2019-01-13T06:38:45.203Z,97
2019-01-13T06:44:11.792Z,98
2019-01-13T06:49:38.365Z,98
2019-01-13T06:55:04.920Z,98
2019-01-13T07:00:32.004Z,98
2019-01-13T07:05:59.105Z,98
2019-01-13T07:11:25.745Z,98
2019-01-13T07:16:52.293Z,98
2019-01-13T07:22:18.841Z,98
2019-01-13T07:27:45.462Z,98
2019-01-13T07:33:12.038Z,98
2019-01-13T07:38:38.619Z,98
2019-01-13T07:44:05.282Z,98
2019-01-13T07:49:32.804Z,98
2019-01-13T07:54:59.392Z,98
2019-01-13T08:00:29.495Z,98
2019-01-13T08:05:54.652Z,98
2019-01-13T08:11:21.260Z,98
2019-01-13T08:16:48.872Z,98
2019-01-13T08:22:15.414Z,98
2019-01-13T08:27:43.032Z,98
2019-01-13T08:33:10.652Z,98
2019-01-13T08:38:37.285Z,98
2019-01-13T08:44:04.911Z,98
2019-01-13T08:49:31.675Z,98
2019-01-13T08:54:58.192Z,98
2019-01-13T09:00:26.188Z,98
2019-01-13T09:05:52.378Z,98
2019-01-13T09:11:20.059Z,98
2019-01-13T09:16:47.660Z,98
2019-01-13T09:22:15.430Z,98
2019-01-13T09:27:42.969Z,99
2019-01-13T09:33:09.607Z,99
2019-01-13T09:38:36.460Z,99
2019-01-13T09:44:02.993Z,99
2019-01-13T09:49:30.616Z,99
2019-01-13T09:54:57.292Z,99
2019-01-13T10:00:23.928Z,99
2019-01-13T10:05:50.599Z,99
2019-01-13T10:11:18.258Z,99
2019-01-13T10:16:45.937Z,99
2019-01-13T10:22:13.553Z,99
2019-01-13T10:27:41.265Z,99
2019-01-13T10:33:08.917Z,99
2019-01-13T10:38:35.591Z,99
2019-01-13T10:44:03.253Z,99
2019-01-13T10:49:30.918Z,99
2019-01-13T10:54:58.587Z,99
2019-01-13T11:00:26.304Z,99
2019-01-13T11:05:53.986Z,99
2019-01-13T11:11:21.661Z,99
2019-01-13T11:16:48.337Z,99
2019-01-13T11:22:15.006Z,99
2019-01-13T11:27:41.698Z,99
2019-01-13T11:33:09.493Z,99
2019-01-13T11:38:35.164Z,99
2019-01-13T11:44:01.817Z,99
2019-01-13T11:49:28.560Z,99
2019-01-13T11:54:56.258Z,99
2019-01-13T12:00:23.023Z,99
2019-01-13T12:05:50.717Z,99
2019-01-13T12:11:17.495Z,99
2019-01-13T12:16:44.129Z,99
2019-01-13T12:22:11.835Z,99
2019-01-13T12:27:38.558Z,99
2019-01-13T12:33:05.299Z,99
2019-01-13T12:38:33.048Z,99
2019-01-13T12:43:59.822Z,99
2019-01-13T12:49:27.600Z,99
2019-01-13T12:54:54.269Z,99
2019-01-13T13:00:21.989Z,99
2019-01-13T13:05:48.752Z,99
2019-01-13T13:11:15.465Z,99
2019-01-13T13:16:43.155Z,99
2019-01-13T13:22:10.865Z,99
2019-01-13T13:27:37.601Z,99
2019-01-13T13:33:09.433Z,99
2019-01-13T13:38:30.962Z,99
2019-01-13T13:43:57.584Z,99
2019-01-13T13:49:24.227Z,100
2019-01-13T13:54:52.560Z,100
2019-01-13T14:00:18.337Z,100
2019-01-13T14:05:44.947Z,100
2019-01-13T14:11:11.440Z,100
2019-01-13T14:16:37.997Z,100
2019-01-13T14:22:04.577Z,100
2019-01-13T14:27:31.166Z,100
2019-01-13T14:32:57.763Z,100
2019-01-13T14:38:25.542Z,100
2019-01-13T14:43:53.014Z,100
2019-01-13T14:49:20.640Z,99
2019-01-13T14:54:47.241Z,99
2019-01-13T15:00:14.841Z,99
2019-01-13T15:05:41.470Z,99
2019-01-13T15:11:08.109Z,99
2019-01-13T15:16:35.703Z,99
2019-01-13T15:22:03.329Z,99
2019-01-13T15:27:29.892Z,99
2019-01-13T15:32:56.552Z,99
2019-01-13T15:43:50.734Z,99
2019-01-13T15:49:17.281Z,99
2019-01-13T15:54:43.890Z,99
2019-01-13T16:00:11.549Z,99
2019-01-13T16:05:38.090Z,99
2019-01-13T16:11:04.643Z,99
2019-01-13T16:16:32.272Z,99
2019-01-13T16:21:59.783Z,99
2019-01-13T16:27:27.364Z,99
2019-01-13T16:32:54.972Z,99
2019-01-13T16:38:21.541Z,99
2019-01-13T16:43:48.128Z,99
2019-01-13T16:49:14.679Z,99
2019-01-13T16:54:41.276Z,99
2019-01-13T17:00:07.813Z,99
2019-01-13T17:05:35.406Z,98
2019-01-13T17:11:01.996Z,98
2019-01-13T17:16:28.543Z,98
2019-01-13T17:21:55.134Z,98
2019-01-13T17:27:21.713Z,98
2019-01-13T17:32:49.285Z,98
2019-01-13T17:38:15.967Z,98
2019-01-13T17:43:43.436Z,98
2019-01-13T17:49:10.970Z,98
2019-01-13T17:54:38.545Z,98
2019-01-13T18:00:05.078Z,98
2019-01-13T18:05:31.637Z,98
2019-01-13T18:10:59.237Z,98
2019-01-13T18:16:26.784Z,98
2019-01-13T18:21:54.313Z,98
2019-01-13T18:27:21.899Z,98
2019-01-13T18:32:49.461Z,98
2019-01-13T18:38:16.947Z,98
2019-01-13T18:43:43.492Z,98
2019-01-13T18:49:10.030Z,98
2019-01-13T18:54:37.517Z,97
2019-01-13T19:00:04.051Z,97
2019-01-13T19:05:31.560Z,97
2019-01-13T19:10:58.121Z,97
2019-01-13T19:16:25.618Z,97
2019-01-13T19:21:53.116Z,97
2019-01-13T19:27:19.619Z,97
2019-01-13T19:32:47.232Z,97
2019-01-13T19:38:14.510Z,97
2019-01-13T19:43:40.992Z,96
2019-01-13T19:49:07.900Z,96
2019-01-13T19:54:34.879Z,96
2019-01-13T20:00:01.488Z,95
2019-01-13T20:05:27.762Z,95
2019-01-13T20:10:55.163Z,95
2019-01-13T20:16:21.591Z,95
2019-01-13T20:21:49.060Z,94
2019-01-13T20:27:15.441Z,94
2019-01-13T20:32:41.815Z,94
2019-01-13T20:38:09.254Z,93
2019-01-13T20:43:35.649Z,93
2019-01-13T20:49:02.163Z,93
2019-01-13T20:54:28.487Z,92
2019-01-13T20:59:54.911Z,92
2019-01-13T21:05:26.486Z,92
2019-01-13T21:10:49.634Z,92
2019-01-13T21:16:16.044Z,91
2019-01-13T21:21:43.426Z,91
2019-01-13T21:27:09.794Z,91
2019-01-13T21:32:37.181Z,91
2019-01-13T21:38:03.589Z,90
2019-01-13T21:43:29.925Z,90
2019-01-13T21:48:57.291Z,90
2019-01-13T21:54:24.673Z,89
2019-01-13T21:59:51.044Z,89
2019-01-13T22:05:18.446Z,88
2019-01-13T22:10:44.769Z,88
2019-01-13T22:16:11.141Z,88
2019-01-13T22:21:37.479Z,88
2019-01-13T22:27:03.852Z,88
2019-01-13T22:32:31.201Z,88
2019-01-13T22:37:57.547Z,88
2019-01-13T22:43:23.861Z,87
2019-01-13T22:48:50.401Z,87
2019-01-13T22:54:16.548Z,87
2019-01-13T22:59:43.829Z,87
2019-01-13T23:05:10.355Z,86
2019-01-13T23:10:36.459Z,86
2019-01-13T23:16:03.787Z,86
2019-01-13T23:21:30.357Z,86
2019-01-13T23:26:57.424Z,85
2019-01-13T23:32:24.780Z,85
2019-01-13T23:43:18.402Z,85
2019-01-13T23:48:45.650Z,84
2019-01-13T23:54:11.989Z,84
2019-01-13T23:59:38.635Z,84
